createdAt,value
2023-05-17T00:04:09.340Z,10.07
2023-05-17T00:10:43.441Z,10.04
2023-05-17T00:14:48.541Z,9.97
2023-05-17T00:20:07.830Z,9.93
2023-05-17T00:25:27.491Z,9.85
2023-05-17T00:30:46.765Z,9.85
2023-05-17T00:36:06.389Z,9.8
2023-05-17T00:41:24.186Z,9.74
2023-05-17T00:46:43.159Z,9.74
2023-05-17T00:57:21.954Z,9.63
2023-05-17T01:02:40.811Z,9.6
2023-05-17T01:08:00.587Z,9.56
2023-05-17T01:13:19.593Z,9.53
2023-05-17T01:18:38.804Z,9.47
2023-05-17T01:23:57.497Z,9.43
2023-05-17T01:29:16.794Z,9.39
2023-05-17T01:39:55.373Z,9.3
2023-05-17T01:45:14.158Z,9.25
2023-05-17T01:50:33.160Z,9.22
2023-05-17T01:55:52.662Z,9.22
2023-05-17T02:01:11.565Z,9.2
2023-05-17T02:06:30.420Z,9.16
2023-05-17T02:11:48.970Z,9.16
2023-05-17T02:22:27.267Z,9.08
2023-05-17T02:27:46.488Z,9.06
2023-05-17T02:33:06.017Z,9.06
2023-05-17T02:38:24.790Z,9.03
2023-05-17T02:43:43.927Z,9.01
2023-05-17T02:49:03.250Z,8.99
2023-05-17T02:54:22.886Z,8.96
2023-05-17T03:05:01.141Z,8.92
2023-05-17T03:15:39.686Z,8.85
2023-05-17T03:20:59.077Z,8.83
2023-05-17T03:26:17.916Z,8.79
2023-05-17T03:31:36.940Z,8.78
2023-05-17T03:36:56.293Z,8.75
2023-05-17T03:47:34.814Z,8.71
2023-05-17T03:58:13.873Z,8.68
2023-05-17T04:08:52.083Z,8.68
2023-05-17T04:14:11.782Z,8.67
2023-05-17T04:19:31.357Z,8.67
2023-05-17T04:24:50.300Z,8.68
2023-05-17T04:30:09.382Z,8.67
2023-05-17T04:35:29.173Z,8.68
2023-05-17T04:40:47.991Z,8.68
2023-05-17T04:51:26.577Z,8.71
2023-05-17T04:56:46.191Z,8.75
2023-05-17T05:02:06.686Z,8.78
2023-05-17T05:07:24.564Z,8.79
2023-05-17T05:12:44.147Z,8.79
2023-05-17T05:23:22.525Z,8.85
2023-05-17T05:28:41.638Z,8.85
2023-05-17T05:34:01.282Z,8.85
2023-05-17T05:39:20.471Z,8.93
2023-05-17T05:44:40.195Z,8.96
2023-05-17T05:49:59.498Z,9.01
2023-05-17T05:55:18.226Z,9.08
2023-05-17T06:05:55.833Z,9.22
2023-05-17T06:16:34.129Z,9.37
2023-05-17T06:21:53.660Z,9.46
2023-05-17T06:27:12.663Z,9.6
2023-05-17T06:32:32.139Z,9.66
2023-05-17T06:37:51.526Z,9.76
2023-05-17T06:48:30.298Z,9.97
2023-05-17T06:53:49.098Z,10.12
2023-05-17T06:59:08.134Z,10.31
2023-05-17T07:04:27.355Z,10.55
2023-05-17T07:09:46.073Z,10.72
2023-05-17T07:15:05.450Z,10.88
2023-05-17T07:20:25.124Z,10.99
2023-05-17T07:25:44.280Z,11.15
2023-05-17T07:31:03.369Z,11.27
2023-05-17T07:41:41.281Z,11.54
2023-05-17T07:47:00.443Z,11.63
2023-05-17T07:57:38.493Z,11.77
2023-05-17T08:02:58.176Z,11.94
2023-05-17T08:13:36.718Z,12.06
2023-05-17T08:18:55.890Z,12.24
2023-05-17T08:29:34.092Z,12.34
2023-05-17T08:40:12.322Z,12.35
2023-05-17T08:45:31.396Z,12.36
2023-05-17T08:50:50.652Z,12.38
2023-05-17T08:56:09.769Z,12.41
2023-05-17T09:01:31.395Z,12.49
2023-05-17T09:12:07.796Z,12.49
2023-05-17T09:17:26.564Z,12.48
2023-05-17T09:22:45.326Z,12.49
2023-05-17T09:28:04.865Z,12.52
2023-05-17T09:33:24.328Z,12.58
2023-05-17T09:38:43.282Z,12.59
2023-05-17T09:44:02.579Z,12.62
2023-05-17T09:54:41.144Z,12.72
2023-05-17T10:05:20.158Z,12.8
2023-05-17T10:10:39.346Z,12.8
2023-05-17T10:15:58.217Z,12.82
2023-05-17T10:21:17.656Z,12.83
2023-05-17T10:26:36.950Z,12.86
2023-05-17T10:31:56.211Z,12.9
2023-05-17T10:37:14.615Z,12.93
2023-05-17T10:42:33.765Z,12.96
2023-05-17T10:47:53.297Z,12.97
2023-05-17T10:53:22.229Z,12.99
2023-05-17T10:58:31.133Z,13.02
2023-05-17T11:03:49.957Z,13.06
2023-05-17T11:14:28.089Z,13.04
2023-05-17T11:19:46.587Z,13.09
2023-05-17T11:30:24.574Z,13.16
2023-05-17T11:35:44.198Z,13.24
2023-05-17T11:41:04.682Z,13.28
2023-05-17T11:46:22.500Z,13.36
2023-05-17T11:51:51.973Z,13.46
2023-05-17T11:57:01.697Z,13.55
2023-05-17T12:02:21.386Z,13.65
2023-05-17T12:07:40.882Z,13.74
2023-05-17T12:12:59.853Z,13.81
2023-05-17T12:18:18.704Z,13.85
2023-05-17T12:23:38.111Z,13.88
2023-05-17T12:36:21.423Z,13.92
2023-05-17T12:45:21.375Z,14.01
2023-05-17T12:50:40.352Z,14.08
2023-05-17T12:55:59.635Z,14.11
2023-05-17T13:01:19.352Z,14.33
2023-05-17T13:06:38.306Z,14.48
2023-05-17T13:11:58.409Z,14.52
2023-05-17T13:17:16.715Z,14.58
2023-05-17T13:27:55.650Z,14.65
2023-05-17T13:38:34.502Z,14.77
2023-05-17T13:43:53.822Z,14.77
2023-05-17T13:54:30.906Z,14.92
2023-05-17T13:59:49.737Z,14.99
2023-05-17T14:05:09.126Z,14.97
2023-05-17T14:10:28.546Z,15.06
2023-05-17T14:15:47.252Z,15.07
2023-05-17T14:26:25.561Z,15.1
2023-05-17T14:31:44.906Z,15.14
2023-05-17T14:37:03.834Z,15.16
2023-05-17T14:42:23.163Z,15.17
2023-05-17T14:47:42.088Z,15.22
2023-05-17T14:53:01.635Z,15.36
2023-05-17T14:58:21.057Z,15.48
2023-05-17T15:03:39.851Z,15.53
2023-05-17T15:08:58.878Z,15.58
2023-05-17T15:14:18.239Z,15.62
2023-05-17T15:19:37.012Z,15.65
2023-05-17T15:24:56.308Z,15.69
2023-05-17T15:30:14.950Z,15.75
2023-05-17T15:35:33.856Z,15.81
2023-05-17T15:40:52.910Z,15.75
2023-05-17T15:46:12.458Z,15.74
2023-05-17T15:51:32.142Z,15.77
2023-05-17T15:56:51.164Z,15.77
2023-05-17T16:02:10.552Z,15.79
2023-05-17T16:07:29.865Z,15.79
2023-05-17T16:12:49.145Z,15.78
2023-05-17T16:18:08.818Z,15.78
2023-05-17T16:23:27.475Z,15.75
2023-05-17T16:28:46.865Z,15.74
2023-05-17T16:34:05.750Z,15.71
2023-05-17T16:39:25.212Z,15.72
2023-05-17T16:44:43.943Z,15.72
2023-05-17T16:50:02.919Z,15.71
2023-05-17T16:55:22.067Z,15.67
2023-05-17T17:00:41.220Z,15.61
2023-05-17T17:06:00.830Z,15.55
2023-05-17T17:11:19.922Z,15.51
2023-05-17T17:16:39.622Z,15.46
2023-05-17T17:21:59.337Z,15.41
2023-05-17T17:32:37.368Z,15.28
2023-05-17T17:37:56.330Z,15.23
2023-05-17T17:43:15.897Z,15.17
2023-05-17T17:48:35.201Z,15.11
2023-05-17T17:53:54.549Z,15.04
2023-05-17T17:59:14.111Z,14.94
2023-05-17T18:04:32.996Z,14.89
2023-05-17T18:09:52.228Z,14.83
2023-05-17T18:15:10.908Z,14.73
2023-05-17T18:20:29.851Z,14.63
2023-05-17T18:25:48.539Z,14.55
2023-05-17T18:31:08.101Z,14.46
2023-05-17T18:36:27.021Z,14.36
2023-05-17T18:41:45.941Z,14.25
2023-05-17T18:47:05.284Z,14.19
2023-05-17T18:52:24.390Z,14.11
2023-05-17T18:57:43.764Z,14.04
2023-05-17T19:08:22.628Z,13.87
2023-05-17T19:13:41.564Z,13.74
2023-05-17T19:19:00.767Z,13.65
2023-05-17T19:24:20.362Z,13.58
2023-05-17T19:29:39.758Z,13.48
2023-05-17T19:34:58.619Z,13.39
2023-05-17T19:40:17.799Z,13.33
2023-05-17T19:50:56.921Z,13.22
2023-05-17T19:56:15.441Z,13.16
2023-05-17T20:01:43.139Z,13.13
2023-05-17T20:06:54.599Z,13.1
2023-05-17T20:12:22.403Z,13.04
2023-05-17T20:17:32.320Z,13
2023-05-17T20:22:51.207Z,12.96
2023-05-17T20:33:30.388Z,12.85
2023-05-17T20:38:49.776Z,12.82
2023-05-17T20:44:08.613Z,12.75
2023-05-17T20:49:36.704Z,12.69
2023-05-17T20:54:46.986Z,12.62
2023-05-17T21:00:05.992Z,12.58
2023-05-17T21:05:25.593Z,12.5
2023-05-17T21:16:04.010Z,12.41
2023-05-17T21:26:41.990Z,12.31
2023-05-17T21:32:00.875Z,12.26
2023-05-17T21:37:20.012Z,12.21
2023-05-17T21:42:39.746Z,12.17
2023-05-17T21:47:58.631Z,12.1
2023-05-17T21:53:18.037Z,12.05
2023-05-17T21:58:37.272Z,11.99
2023-05-17T22:09:16.187Z,11.9
2023-05-17T22:14:35.878Z,11.87
2023-05-17T22:19:54.844Z,11.83
2023-05-17T22:25:15.062Z,11.77
2023-05-17T22:30:33.566Z,11.74
2023-05-17T22:41:12.058Z,11.61
2023-05-17T22:46:31.573Z,11.57
2023-05-17T22:51:50.348Z,11.49
2023-05-17T22:57:09.158Z,11.43
2023-05-17T23:07:47.688Z,11.3
2023-05-17T23:13:06.590Z,11.24
2023-05-17T23:18:25.484Z,11.16
2023-05-17T23:23:44.278Z,11.1
2023-05-17T23:29:03.286Z,11.08
2023-05-17T23:39:41.273Z,10.95
2023-05-17T23:50:20.601Z,10.82
2023-05-17T23:55:39.652Z,10.75
